Grzegorz Blaszczykowski

Scout - Lechia
20 Nov 2027
Samstag
Verarbeitung

Persönlichkeit

Anpassungsfähigkeit (5) Ehrgeiz (11) Kontroverse (12) Loyalität (17) Druck (3) Professionalität (17) Fairness (13) Temperament (13)

Profil

Trainerstil Demokratisch
Lizenz Kontinentale Pro
Entschlossenheit 5
Menschenführung 6
Motivation 12
Disziplin 7
Arbeitszufriedenheit
100%
Ermüdung
0%
Rolle Scout
Gehalt 82.3K p/W
Vertrag 14.03.2030

Leistung

Verhalten Gut
Trainingseffektivität
45%
Spielerentwicklung
35%
Verletzungsprävention
50%
Taktische Umsetzung
20%

Letzte Ereignisse

Nahm an einer Scouting-Besprechung teil jetzt
Empfahl ein Transferziel jetzt
Empfahl ein Transferziel jetzt
Nahm an einer Scouting-Besprechung teil 7T her
Empfahl ein Transferziel 7T her
Empfahl ein Transferziel 7T her
Spieler begutachtet 14T her
Spieler begutachtet 14T her

Aktuell beobachtet

114
Spieler Verein Status Fähigkeit Vertrauen Beobachtet Zuletzt beobachtet Letzte Stimme
Sunday Aniebet Enyimba Aktiv 72 / 105 40% 3 18.11.2027 -
Mihajlo Cvetković Anderlecht Aktiv 134 / 133 40% 1 18.11.2027 -
Alex Amaefula Kun Khalifat Aktiv 74 / 77 40% 1 17.11.2027 -
Kyrylo Dihtiar Polissia Aktiv 112 / 115 40% 1 17.11.2027 -
Mateo Silvetti Inter Miami CF Aktiv 148 / 118 40% 4 04.11.2027 -
Onuorah Onyedika Kun Khalifat Aktiv 105 / 82 40% 4 02.11.2027 -
Mads Bomholt Lillestrom Aktiv 114 / 111 40% 1 02.11.2027 -
Joel Ezra Enyimba Aktiv 71 / 112 40% 2 01.11.2027 -
Shea Lacey Millwall Aktiv 137 / 139 40% 2 01.11.2027 -
Mfundo Vilakazi Kaizer Chiefs Aktiv 137 / 113 40% 1 31.10.2027 -
Felipe Obradovich Gimnasia La Plata Aktiv 86 / 105 40% 1 31.10.2027 -
Agustín Medina Lanús Aktiv 133 / 129 40% 1 30.10.2027 -
Gonzalo Gelini Boca Juniors Aktiv 136 / 131 40% 1 30.10.2027 -
Mateo Aguiar Defensa y Justicia Aktiv 95 / 133 40% 1 29.10.2027 -
Matias Siltanen Malmo FF Aktiv 119 / 136 40% 2 28.10.2027 -
Fillip Jenssen Riise Stabaek Aktiv 90 / 102 40% 1 28.10.2027 -
Amar Diagne Atvidaberg Aktiv 73 / 90 40% 2 27.10.2027 -
Alexis Rodríguez Deportivo Lara Aktiv 115 / 109 40% 1 27.10.2027 -
Kaick FC Dallas Aktiv 104 / 116 40% 1 26.10.2027 -
Nicolás Azambuja Danubio Aktiv 130 / 118 40% 4 24.10.2027 -
Jakub Hajdo Kuban Holding Aktiv 77 / 76 40% 1 24.10.2027 -
Facundo Balatti Penarol Aktiv 116 / 108 40% 3 22.10.2027 -
Björn Hedlöf Helsingborg Aktiv 78 / 91 40% 1 22.10.2027 -
Mustapha Umar Kano Pillars Aktiv 82 / 95 40% 1 21.10.2027 -
Dânio Djassi Portimonense Aktiv 129 / 130 40% 1 20.10.2027 -
Ryan Kavuma-McQueen Bromley Aktiv 117 / 131 40% 1 20.10.2027 -
Aiden Hezarkhani Real Salt Lake Aktiv 114 / 96 40% 2 19.10.2027 -
Chinedu Nwosu Bendel Insurance Aktiv 111 / 103 40% 1 19.10.2027 -
Luca Williams-Barnett Doncaster Rovers Aktiv 107 / 122 40% 1 17.10.2027 -
Dylan Salvo Defensores Unidos Aktiv 91 / 105 40% 2 15.10.2027 -
Lion Beqiri Falkenberg Aktiv 104 / 106 40% 1 14.10.2027 -
Felix Mosquera Deportes Quindio Aktiv 112 / 108 40% 1 14.10.2027 -
Diogo Guzmán Montevideo City Torque Aktiv 103 / 126 40% 2 13.10.2027 -
Wisdom Udom Bendel Insurance Aktiv 73 / 94 40% 1 12.10.2027 -
Mlindelwa Nyanisa APS Bomet Aktiv 65 / 64 40% 1 12.10.2027 -
Abubakar Garba Nasarawa United Aktiv 81 / 86 40% 2 10.10.2027 -
Gideon Manaseh Ikorodu City Aktiv 106 / 108 40% 2 09.10.2027 -
Giorgi Putkaradze Sioni Aktiv 88 / 97 40% 1 09.10.2027 -
David Martínez Toronto FC Aktiv 109 / 140 40% 2 08.10.2027 -
Luis Yanes Real Cartagena Aktiv 89 / 99 40% 1 08.10.2027 -
Santos Torrealba Zamora Aktiv 73 / 98 40% 1 07.10.2027 -
Mateo Peralta Danubio Aktiv 108 / 126 40% 2 06.10.2027 -
Julián Bragado Morón Aktiv 88 / 98 40% 1 06.10.2027 -
Oskar Spiten-Nysæter Molde Aktiv 118 / 131 40% 1 04.10.2027 -
Tiziano Noriega Tristán Suárez Aktiv 93 / 89 40% 1 20.09.2027 -
Luis Otávio Toronto FC Aktiv 107 / 122 40% 1 20.09.2027 -
Antonio Palac Malmo FF Aktiv 80 / 90 40% 1 19.09.2027 -
Geanfranco Rodríguez Defensor Sporting Aktiv 100 / 95 40% 1 18.09.2027 -
Abdulrahman Hamisu Niger Tornadoes Aktiv 84 / 94 40% 1 17.09.2027 -
Thiago D'Archivio Alvarado Aktiv 63 / 86 40% 1 17.09.2027 -
Iván Barbona Colón Aktiv 110 / 100 40% 1 15.09.2027 -
Anthony da Costa Artigas Aktiv 105 / 90 40% 1 11.09.2027 -
Jofrank Istifanus Nasarawa United Aktiv 81 / 77 40% 1 06.09.2027 -
Jardell Kanga Ilves Aktiv 102 / 117 40% 1 06.09.2027 -
Thulani Billiat Utrecht Aktiv 136 / 136 61% 1 01.06.2027 Befürworten
Caio Vidal FC Copenhagen Aktiv 128 / 129 63% 1 01.06.2027 Befürworten
Abraham Paintsil Hasaacas Aktiv 87 / 97 40% 1 18.05.2027 -
Edwin Asamoah Berekum Chelsea Aktiv 87 / 94 40% 1 18.05.2027 -
Jonathan De Irastorza Levante Aktiv 120 / 125 40% 2 16.05.2027 -
Daniel Vernattus Metalist Aktiv 98 / 88 40% 1 15.05.2027 -
Riquelme Thompson-Jones Shrewsbury Town Aktiv 105 / 120 40% 1 09.05.2027 -
Gonçalo Oliveira Benfica Aktiv 97 / 116 40% 1 09.05.2027 -
Davide Bartesaghi AC Milan Aktiv 119 / 131 40% 1 08.05.2027 -
Gladson Sulemana Liberty Professionals Aktiv 75 / 97 40% 1 08.05.2027 -
Luca Lipani Frosinone Aktiv 116 / 125 40% 1 05.05.2027 -
Jofre Torrents Ajax Aktiv 115 / 133 40% 1 05.05.2027 -
Dominik Kobus Botev Plovdiv Aktiv 86 / 77 40% 1 04.05.2027 -
Riley Owen Wycombe Wanderers Aktiv 100 / 111 40% 1 04.05.2027 -
Mauricio Amaro Atlanta United FC Aktiv 118 / 115 40% 1 03.05.2027 -
Joel McGregor Swindon Town Aktiv 96 / 98 40% 1 03.05.2027 -
Nazar Balaba Ahrobiznes Aktiv 71 / 91 40% 1 15.04.2027 -
Dylan Lawlor Cardiff City Aktiv 112 / 113 40% 1 15.04.2027 -
Christos Mouzakitis Hull City Aktiv 116 / 137 40% 2 14.04.2027 -
Daniel Kelly Derby County Aktiv 100 / 112 40% 1 14.04.2027 -
Caleb Yirenkyi Coventry City Aktiv 129 / 147 40% 1 13.04.2027 -
Sergio Castillo Cortulua Aktiv 109 / 96 40% 1 13.04.2027 -
T-Jay Parfitt Cardiff City Aktiv 78 / 95 40% 1 12.04.2027 -
Martim Cunha Porto Aktiv 103 / 103 40% 1 06.04.2027 -
Sascha Britschgi Catanzaro Aktiv 124 / 133 40% 1 06.04.2027 -
Mohammed Wakaso Hasaacas Aktiv 72 / 95 40% 1 05.04.2027 -
Leandro Martins Benfica Aktiv 89 / 99 40% 1 05.04.2027 -
Jacques Ekomié Wrexham Aktiv 126 / 130 40% 1 06.03.2027 -
Ramón Terrats Getafe Aktiv 134 / 140 40% 1 03.03.2027 -
Matthew Sorinola Exeter City Aktiv 99 / 100 40% 2 02.03.2027 -
Kellen Fisher Norwich City Aktiv 110 / 120 40% 2 02.03.2027 -
Tiago Freitas Benfica Aktiv 117 / 123 40% 1 02.03.2027 -
Andrey Ivlev Nizhniy Novgorod Aktiv 116 / 124 40% 1 01.03.2027 -
Macaulley Kuma Heart of Lions Aktiv 81 / 70 40% 1 01.03.2027 -
Thulani Phiri Platinum Stars Aktiv 131 / 123 40% 1 23.02.2027 -
Max Johnston Derby County Aktiv 114 / 134 40% 1 23.02.2027 -
Brian De Keersmaecker Oxford United Aktiv 128 / 118 40% 1 22.02.2027 -
Thalente Mbatha Orlando Pirates Aktiv 108 / 116 40% 1 22.02.2027 -
Milan van Ewijk Coventry City Aktiv 139 / 139 40% 1 21.02.2027 -
Mohamed Ali Ben Romdhane Al Ahly Aktiv 148 / 138 40% 1 21.02.2027 -
Goodman Mosele Chippa United Aktiv 96 / 110 40% 1 16.02.2027 -
Bobby Thomas Coventry City Aktiv 127 / 125 40% 4 15.02.2027 -
Lewis Gibson Preston Aktiv 124 / 122 40% 1 15.02.2027 -
Dara O'Shea Ipswich Town Aktiv 122 / 138 40% 1 14.02.2027 -
Rúben Vinagre Legia Aktiv 119 / 119 40% 1 09.02.2027 -
Florentino Luís Ipswich Town Aktiv 149 / 135 40% 1 09.02.2027 -
Ilir Krasniqi Polissia Aktiv 129 / 123 40% 1 06.02.2027 -
Tyrell Malacia Derby County Aktiv 124 / 137 40% 1 06.02.2027 -
Max Bird Birmingham Aktiv 130 / 127 40% 1 03.02.2027 -
Filip Kaloč Ludogorets Aktiv 119 / 118 40% 1 25.01.2027 -
Ethan Galbraith Swansea City Aktiv 127 / 124 40% 1 18.12.2026 -
Josh Tymon Swansea City Aktiv 120 / 125 40% 1 18.12.2026 -
Welington Southampton Aktiv 128 / 133 40% 1 17.12.2026 -
Nicolas Madsen Queens Park Rangers Aktiv 129 / 130 40% 1 13.12.2026 -
Dominik Piła Cracovia Aktiv 124 / 112 40% 1 13.12.2026 -
Kayne Ramsay Charlton Athletic Aktiv 117 / 117 40% 1 10.12.2026 -
Gonçalo Franco Swansea City Aktiv 126 / 127 40% 1 10.12.2026 -
Patrik Hellebrand Korona Aktiv 125 / 120 40% 1 07.12.2026 -
Shuma Nagamatsu Ruch Aktiv 85 / 88 44% 1 24.08.2026 -
José Pozo Pogon Aktiv 127 / 104 40% 1 03.08.2026 -